createdAt,value
2022-09-15T00:03:14.115Z,8.33
2022-09-15T00:08:16.697Z,6.73
2022-09-15T00:13:19.509Z,6.97
2022-09-15T00:18:21.782Z,7.23
2022-09-15T00:23:24.060Z,6.50
2022-09-15T00:28:26.369Z,6.20
2022-09-15T00:33:28.586Z,5.53
2022-09-15T00:38:30.958Z,5.37
2022-09-15T00:43:47.904Z,5.90
2022-09-15T00:49:18.548Z,6.43
2022-09-15T00:54:32.589Z,6.03
2022-09-15T00:59:37.715Z,5.47
2022-09-15T01:04:39.976Z,5.10
2022-09-15T01:09:48.291Z,4.87
2022-09-15T01:14:50.765Z,5.70
2022-09-15T01:20:24.801Z,4.93
2022-09-15T01:26:02.880Z,5.50
2022-09-15T01:32:09.510Z,5.93
2022-09-15T01:38:22.969Z,6.50
2022-09-15T01:44:26.599Z,7.07
2022-09-15T01:49:53.618Z,7.33
2022-09-15T01:55:09.418Z,6.60
2022-09-15T02:00:15.846Z,8.13
2022-09-15T02:05:54.560Z,7.40
2022-09-15T02:11:18.483Z,6.63
2022-09-15T02:22:12.430Z,6.73
2022-09-15T02:27:22.743Z,6.37
2022-09-15T02:32:30.661Z,6.32
2022-09-15T02:37:34.360Z,7.17
2022-09-15T02:42:37.448Z,7.97
2022-09-15T02:47:40.324Z,6.50
2022-09-15T02:52:45.286Z,7.87
2022-09-15T02:57:52.616Z,7.57
2022-09-15T03:03:03.195Z,7.70
2022-09-15T03:08:08.960Z,7.40
2022-09-15T03:13:12.254Z,8.43
2022-09-15T03:18:14.612Z,7.53
2022-09-15T03:23:17.108Z,9.10
2022-09-15T03:28:19.612Z,6.93
2022-09-15T03:33:26.651Z,7.80
2022-09-15T03:38:36.163Z,8.47
2022-09-15T03:43:40.043Z,7.17
2022-09-15T03:48:44.519Z,7.80
2022-09-15T03:53:47.957Z,7.70
2022-09-15T03:58:52.744Z,7.80
2022-09-15T04:03:58.141Z,7.40
2022-09-15T04:09:02.369Z,6.70
2022-09-15T04:14:06.913Z,7.27
2022-09-15T04:19:11.006Z,7.10
2022-09-15T04:24:17.676Z,7.23
2022-09-15T04:29:20.600Z,7.03
2022-09-15T04:34:23.004Z,6.50
2022-09-15T04:39:25.844Z,6.03
2022-09-15T04:44:28.137Z,6.97
2022-09-15T04:50:20.003Z,6.97
2022-09-15T04:55:22.364Z,5.80
2022-09-15T05:00:25.246Z,7.33
2022-09-15T05:05:28.792Z,6.97
2022-09-15T05:10:31.960Z,7.10
2022-09-15T05:15:34.200Z,6.97
2022-09-15T05:20:39.200Z,7.03
2022-09-15T05:25:41.475Z,7.47
2022-09-15T05:30:44.560Z,6.87
2022-09-15T05:35:51.860Z,6.50
2022-09-15T05:41:06.028Z,6.80
2022-09-15T05:46:08.723Z,6.67
2022-09-15T05:51:11.157Z,7.77
2022-09-15T05:56:14.844Z,7.87
2022-09-15T06:01:19.667Z,6.53
2022-09-15T06:06:24.735Z,7.03
2022-09-15T06:11:29.001Z,6.63
2022-09-15T06:16:33.528Z,6.70
2022-09-15T06:21:35.823Z,6.97
2022-09-15T06:26:37.932Z,7.43
2022-09-15T06:31:40.752Z,8.23
2022-09-15T06:36:42.901Z,7.97
2022-09-15T06:42:01.674Z,7.10
2022-09-15T06:47:04.550Z,4.72
2022-09-15T06:52:07.236Z,3.37
2022-09-15T06:57:09.471Z,2.60
2022-09-15T07:02:12.175Z,1.80
2022-09-15T07:07:14.430Z,2.37
2022-09-15T07:12:16.673Z,2.30
2022-09-15T07:17:18.846Z,2.70
2022-09-15T07:22:21.281Z,4.03
2022-09-15T07:27:27.086Z,4.00
2022-09-15T07:32:29.556Z,3.90
2022-09-15T07:37:33.427Z,3.97
2022-09-15T07:42:35.765Z,3.37
2022-09-15T07:47:38.815Z,2.53
2022-09-15T07:52:40.987Z,2.67
2022-09-15T07:57:43.247Z,2.80
2022-09-15T08:02:45.452Z,1.73
2022-09-15T08:07:47.659Z,2.10
2022-09-15T08:12:49.845Z,1.50
2022-09-15T08:17:52.557Z,1.57
2022-09-15T08:22:54.727Z,1.77
2022-09-15T08:27:57.071Z,2.23
2022-09-15T08:32:59.350Z,4.17
2022-09-15T08:38:01.517Z,3.50
2022-09-15T08:43:22.164Z,4.10
2022-09-15T08:48:36.663Z,3.43
2022-09-15T08:53:45.914Z,3.87
2022-09-15T08:58:48.559Z,3.90
2022-09-15T09:04:00.010Z,2.93
2022-09-15T09:09:27.987Z,2.83
2022-09-15T09:14:57.038Z,3.90
2022-09-15T09:20:40.111Z,3.13
2022-09-15T09:25:43.302Z,2.90
2022-09-15T09:30:46.166Z,3.30
2022-09-15T09:35:52.793Z,2.80
2022-09-15T09:40:59.865Z,3.00
2022-09-15T09:51:33.735Z,3.50
2022-09-15T09:56:35.881Z,2.90
2022-09-15T10:01:38.281Z,2.40
2022-09-15T10:06:42.298Z,2.30
2022-09-15T10:11:55.367Z,2.20
2022-09-15T10:17:02.528Z,2.10
2022-09-15T10:22:05.221Z,2.10
2022-09-15T10:27:09.360Z,1.80
2022-09-15T10:32:29.487Z,2.80
2022-09-15T10:37:48.745Z,3.40
2022-09-15T10:42:55.912Z,3.58
2022-09-15T10:48:35.795Z,2.40
2022-09-15T10:53:51.351Z,3.75
2022-09-15T10:58:58.911Z,3.77
2022-09-15T11:04:16.292Z,3.80
2022-09-15T11:09:18.562Z,3.93
2022-09-15T11:14:27.448Z,3.37
2022-09-15T11:20:02.061Z,3.10
2022-09-15T11:25:11.049Z,3.90
2022-09-15T11:30:31.956Z,3.50
2022-09-15T11:35:38.695Z,3.97
2022-09-15T11:41:07.184Z,4.90
2022-09-15T11:46:14.629Z,3.43
2022-09-15T11:51:20.359Z,4.30
2022-09-15T11:56:40.667Z,4.63
2022-09-15T12:01:54.942Z,4.00
2022-09-15T12:07:23.948Z,4.10
2022-09-15T12:12:30.667Z,4.03
2022-09-15T12:17:48.544Z,3.93
2022-09-15T12:22:57.319Z,3.57
2022-09-15T12:28:24.372Z,3.10
2022-09-15T12:33:47.391Z,2.93
2022-09-15T12:38:49.881Z,2.70
2022-09-15T12:43:57.911Z,5.03
2022-09-15T12:49:03.324Z,8.80
2022-09-15T12:54:08.764Z,2.70
2022-09-15T12:59:14.940Z,3.07
2022-09-15T13:04:43.981Z,3.17
2022-09-15T13:09:57.224Z,2.20
2022-09-15T13:15:02.677Z,2.60
2022-09-15T13:20:10.421Z,2.73
2022-09-15T13:25:15.921Z,2.10
2022-09-15T13:30:21.144Z,2.90
2022-09-15T13:35:45.277Z,2.50
2022-09-15T13:40:50.694Z,2.37
2022-09-15T13:46:06.097Z,2.30
2022-09-15T13:51:29.869Z,1.50
2022-09-15T13:56:36.952Z,1.67
2022-09-15T14:01:39.395Z,1.90
2022-09-15T14:06:53.621Z,2.20
2022-09-15T14:12:03.847Z,2.43
2022-09-15T14:17:24.218Z,2.50
2022-09-15T14:22:45.484Z,2.83
2022-09-15T14:28:06.596Z,1.40
2022-09-15T14:39:22.422Z,1.00
2022-09-15T14:50:10.044Z,1.17
2022-09-15T14:55:23.418Z,1.50
2022-09-15T15:00:30.079Z,1.20
2022-09-15T15:05:47.185Z,1.70
2022-09-15T15:10:49.459Z,1.30
2022-09-15T15:15:52.131Z,1.30
2022-09-15T15:20:54.385Z,1.60
2022-09-15T15:26:29.139Z,1.97
2022-09-15T15:31:32.292Z,1.60
2022-09-15T15:36:36.727Z,1.50
2022-09-15T15:41:42.735Z,1.77
2022-09-15T15:46:53.836Z,1.63
2022-09-15T15:52:00.305Z,1.93
2022-09-15T15:57:21.732Z,2.17
2022-09-15T16:02:24.581Z,2.70
2022-09-15T16:07:31.077Z,2.97
2022-09-15T16:12:35.542Z,4.67
2022-09-15T16:17:37.880Z,4.40
2022-09-15T16:22:40.822Z,4.83
2022-09-15T16:27:43.030Z,3.50
2022-09-15T16:32:45.219Z,15.03
2022-09-15T16:37:47.465Z,47.23
2022-09-15T16:42:49.797Z,32.33
2022-09-15T16:47:52.000Z,15.63
2022-09-15T16:52:54.729Z,14.27
2022-09-15T16:57:57.094Z,13.53
2022-09-15T17:02:59.673Z,10.17
2022-09-15T17:08:02.349Z,10.20
2022-09-15T17:13:05.390Z,6.27
2022-09-15T17:18:10.171Z,6.17
2022-09-15T17:23:23.606Z,4.30
2022-09-15T17:28:31.718Z,4.63
2022-09-15T17:33:34.005Z,4.53
2022-09-15T17:38:41.318Z,5.60
2022-09-15T17:43:43.975Z,5.67
2022-09-15T17:48:46.381Z,4.17
2022-09-15T17:53:48.742Z,4.33
2022-09-15T17:58:51.101Z,5.23
2022-09-15T18:03:53.340Z,5.03
2022-09-15T18:08:55.559Z,3.17
2022-09-15T18:13:57.755Z,3.10
2022-09-15T18:19:00.113Z,4.60
2022-09-15T18:24:02.496Z,5.20
2022-09-15T18:29:04.820Z,6.50
2022-09-15T18:34:08.328Z,6.30
2022-09-15T18:39:12.255Z,6.17
2022-09-15T18:44:14.618Z,4.60
2022-09-15T18:49:16.995Z,4.03
2022-09-15T18:54:19.504Z,5.00
2022-09-15T18:59:21.913Z,4.77
2022-09-15T19:04:26.360Z,5.27
2022-09-15T19:09:32.141Z,5.63
2022-09-15T19:14:34.529Z,4.90
2022-09-15T19:19:36.870Z,4.20
2022-09-15T19:24:39.414Z,4.20
2022-09-15T19:29:41.906Z,6.50
2022-09-15T19:34:44.808Z,4.37
2022-09-15T19:39:48.226Z,6.47
2022-09-15T19:44:51.690Z,5.00
2022-09-15T19:49:53.988Z,4.73
2022-09-15T19:54:56.285Z,4.17
2022-09-15T19:59:58.530Z,4.00
2022-09-15T20:05:00.841Z,5.23
2022-09-15T20:10:03.545Z,4.77
2022-09-15T20:15:07.292Z,4.13
2022-09-15T20:20:11.843Z,4.13
2022-09-15T20:25:14.258Z,3.90
2022-09-15T20:30:16.461Z,5.07
2022-09-15T20:35:18.699Z,4.50
2022-09-15T20:40:21.031Z,5.10
2022-09-15T20:45:23.318Z,6.17
2022-09-15T20:50:27.574Z,4.97
2022-09-15T20:55:29.816Z,5.97
2022-09-15T21:00:34.026Z,5.10
2022-09-15T21:05:36.365Z,5.43
2022-09-15T21:10:41.859Z,5.00
2022-09-15T21:15:44.133Z,5.10
2022-09-15T21:20:48.128Z,4.63
2022-09-15T21:26:02.150Z,4.87
2022-09-15T21:31:06.768Z,5.47
2022-09-15T21:36:14.912Z,4.63
2022-09-15T21:41:23.563Z,4.00
2022-09-15T21:46:28.616Z,4.10
2022-09-15T21:51:31.165Z,4.23
2022-09-15T21:56:33.688Z,4.30
2022-09-15T22:01:35.874Z,5.13
2022-09-15T22:06:40.804Z,3.87
2022-09-15T22:11:43.324Z,4.17
2022-09-15T22:16:45.563Z,4.73
2022-09-15T22:21:47.928Z,4.63
2022-09-15T22:26:50.361Z,4.40
2022-09-15T22:31:52.752Z,4.97
2022-09-15T22:36:55.070Z,3.73
2022-09-15T22:41:57.280Z,4.50
2022-09-15T22:46:59.509Z,4.40
2022-09-15T22:52:04.859Z,5.00
2022-09-15T22:57:07.703Z,4.33
2022-09-15T23:02:10.211Z,4.40
2022-09-15T23:07:12.502Z,4.07
2022-09-15T23:12:15.116Z,4.43
2022-09-15T23:17:17.305Z,4.10
2022-09-15T23:22:19.516Z,4.50
2022-09-15T23:27:21.887Z,3.83
2022-09-15T23:32:24.233Z,4.50
2022-09-15T23:37:26.464Z,5.20
2022-09-15T23:42:28.672Z,5.60
2022-09-15T23:47:30.898Z,4.43
2022-09-15T23:52:33.239Z,5.47
2022-09-15T23:57:35.444Z,5.10
